Terminal Aerodrome Forecast
Issued by NWS

Home | Current Version | Previous Version | Text Only | Print | Product List | Glossary Off
Versions: 1 2 3 4 5 6 7 8 9 10 11 12 13 14 15

136
FTUS45 KGGW 161120
TAFSDY
TAF
KSDY 161120Z 1612/1712 21009KT P6SM SKC
     FM161300 24009KT P6SM FEW200 WS020/28035KT
     FM161800 28014KT P6SM SCT200
     FM170100 26006KT P6SM FEW200=

USA.gov is the U.S. government's official web portal to all federal, state and local government web resources and services.